Time;durP1;ratioP1;P1;durP2;ratioP2;P2;SDS_P1;SDS_P2;PMS_P1;PMS_P2;Temp;Humidity;BMP_temperature;BMP_pressure;BME280_temperature;BME280_humidity;BME280_pressure;Samples;Min_cycle;Max_cycle;Signal;HPM_P1;HPM_P2
2023/09/12 00:01:05;;;;;;;7.72;3.95;;;;;;;13.89;100.00;97568.19;5153742;27;20500;-71
2023/09/12 00:03:31;;;;;;;10.63;3.80;;;;;;;13.97;100.00;97565.75;5155082;27;20090;-71
2023/09/12 00:05:57;;;;;;;7.20;3.90;;;;;;;13.84;100.00;97564.13;5153609;27;20030;-71
2023/09/12 00:08:23;;;;;;;6.35;3.83;;;;;;;13.76;100.00;97575.44;5153727;27;20120;-71
2023/09/12 00:11:03;;;;;;;9.38;4.13;;;;;;;13.82;100.00;97584.88;5153938;27;20030;-70
2023/09/12 00:13:30;;;;;;;7.80;4.40;;;;;;;13.73;100.00;97572.13;5153572;27;20018;-71
2023/09/12 00:15:55;;;;;;;8.77;4.20;;;;;;;13.68;100.00;97572.47;5136265;27;20042;-71
2023/09/12 00:18:21;;;;;;;12.57;4.13;;;;;;;13.66;100.00;97576.25;5153358;27;20029;-71
2023/09/12 00:20:46;;;;;;;8.65;3.63;;;;;;;13.70;100.00;97569.66;5153494;27;20022;-71
2023/09/12 00:23:12;;;;;;;5.82;3.90;;;;;;;13.53;100.00;97582.50;5153329;27;20022;-71
2023/09/12 00:25:37;;;;;;;4.90;3.22;;;;;;;13.52;100.00;97577.25;5153560;27;20033;-71
2023/09/12 00:28:03;;;;;;;5.57;3.70;;;;;;;13.55;100.00;97571.66;5145221;27;20407;-72
2023/09/12 00:30:29;;;;;;;6.25;3.83;;;;;;;13.38;100.00;97569.34;5152517;27;20060;-72
2023/09/12 00:32:54;;;;;;;6.32;4.22;;;;;;;13.34;100.00;97582.16;5154469;27;20042;-72
2023/09/12 00:35:20;;;;;;;11.43;4.05;;;;;;;13.30;100.00;97575.28;5154327;27;20022;-72
2023/09/12 00:37:45;;;;;;;8.13;4.55;;;;;;;13.30;100.00;97575.28;5154460;27;20083;-70
2023/09/12 00:40:11;;;;;;;9.35;3.80;;;;;;;13.37;100.00;97581.06;5153948;27;20046;-73
2023/09/12 00:42:36;;;;;;;5.03;3.40;;;;;;;13.31;100.00;97579.69;5154488;27;20027;-73
2023/09/12 00:45:02;;;;;;;7.03;3.90;;;;;;;13.27;100.00;97580.88;5152452;27;20063;-72
2023/09/12 00:47:28;;;;;;;5.80;3.30;;;;;;;13.30;100.00;97585.16;5152430;27;20051;-72
2023/09/12 00:49:55;;;;;;;7.97;3.90;;;;;;;13.31;100.00;97577.00;5154217;27;20018;-72
2023/09/12 00:52:21;;;;;;;7.55;4.28;;;;;;;13.29;100.00;97584.28;5152644;27;20023;-71
2023/09/12 00:54:47;;;;;;;10.30;4.07;;;;;;;13.20;100.00;97582.25;5135528;27;20375;-71
2023/09/12 00:57:13;;;;;;;10.27;3.97;;;;;;;13.21;100.00;97591.19;5153847;27;20149;-71
2023/09/12 00:59:38;;;;;;;7.22;3.60;;;;;;;13.19;100.00;97583.25;5152611;27;20027;-71
2023/09/12 01:02:04;;;;;;;13.52;3.90;;;;;;;13.20;100.00;97584.94;5152738;27;20048;-71
2023/09/12 01:04:30;;;;;;;8.60;4.10;;;;;;;13.20;100.00;97579.56;5152419;27;20023;-72
2023/09/12 01:06:55;;;;;;;12.57;3.80;;;;;;;13.15;100.00;97581.75;5152648;27;20026;-72
2023/09/12 01:09:21;;;;;;;8.35;4.00;;;;;;;13.17;100.00;97581.63;5152343;27;20018;-72
2023/09/12 01:11:46;;;;;;;7.07;3.33;;;;;;;13.25;100.00;97579.25;5153801;27;20106;-71
2023/09/12 01:14:12;;;;;;;8.45;4.15;;;;;;;13.19;100.00;97580.56;5132942;27;20027;-71
2023/09/12 01:16:37;;;;;;;8.60;3.70;;;;;;;13.12;100.00;97591.84;5114215;27;20418;-70
2023/09/12 01:19:04;;;;;;;6.20;4.03;;;;;;;13.12;100.00;97581.97;5149499;27;20026;-71
2023/09/12 01:22:08;;;;;;;7.78;3.88;;;;;;;13.13;100.00;97589.06;5153262;27;20022;-71
2023/09/12 01:25:04;;;;;;;8.55;4.00;;;;;;;13.12;100.00;97584.66;5131512;27;20031;-70
2023/09/12 01:27:33;;;;;;;7.65;3.85;;;;;;;13.09;100.00;97589.38;5132575;27;20027;-72
2023/09/12 01:30:03;;;;;;;10.70;3.83;;;;;;;13.03;100.00;97578.09;5131139;27;20027;-71
2023/09/12 01:32:29;;;;;;;8.70;4.03;;;;;;;13.01;100.00;97584.53;5151968;27;20058;-71
2023/09/12 01:34:55;;;;;;;10.38;4.25;;;;;;;12.99;100.00;97583.78;5153351;27;20019;-71
2023/09/12 01:37:20;;;;;;;8.15;4.25;;;;;;;12.94;100.00;97591.31;5153254;27;20026;-71
2023/09/12 01:39:46;;;;;;;7.95;4.20;;;;;;;12.99;100.00;97581.09;5151709;27;20106;-72
2023/09/12 01:42:14;;;;;;;10.25;4.07;;;;;;;12.96;100.00;97594.72;5152113;27;20469;-72
2023/09/12 01:44:41;;;;;;;9.00;4.35;;;;;;;12.98;100.00;97590.13;5151894;27;20046;-72
2023/09/12 01:47:07;;;;;;;7.65;4.18;;;;;;;12.91;100.00;97588.84;5153013;27;20021;-70
2023/09/12 01:49:33;;;;;;;10.25;4.63;;;;;;;12.94;100.00;97597.53;5151587;27;20011;-72
2023/09/12 01:51:59;;;;;;;8.05;4.35;;;;;;;12.94;100.00;97604.72;5151945;27;20496;-71
2023/09/12 01:54:26;;;;;;;7.65;4.57;;;;;;;12.98;100.00;97603.56;5151632;27;20188;-71
2023/09/12 01:56:52;;;;;;;8.45;3.80;;;;;;;12.90;100.00;97604.06;5151531;27;20026;-72
2023/09/12 01:59:17;;;;;;;8.45;3.95;;;;;;;12.87;100.00;97601.63;5151437;27;20493;-72
2023/09/12 02:01:43;;;;;;;6.75;3.70;;;;;;;12.90;100.00;97608.59;5151500;27;20106;-72
2023/09/12 02:04:08;;;;;;;6.95;3.75;;;;;;;12.91;100.00;97604.94;5152472;27;20030;-71
2023/09/12 02:06:35;;;;;;;8.60;3.72;;;;;;;12.76;100.00;97601.50;5152609;27;20030;-72
2023/09/12 02:09:01;;;;;;;7.53;3.90;;;;;;;12.73;100.00;97606.22;5152691;27;20019;-71
2023/09/12 02:11:27;;;;;;;7.35;4.05;;;;;;;12.71;100.00;97608.16;5151376;27;20500;-71
2023/09/12 02:13:52;;;;;;;6.70;3.97;;;;;;;12.70;100.00;97606.44;5151216;27;20037;-71
2023/09/12 02:16:18;;;;;;;10.75;3.80;;;;;;;12.71;100.00;97608.16;5136932;27;20039;-71
2023/09/12 02:18:43;;;;;;;10.77;3.53;;;;;;;12.62;100.00;97606.09;5131539;27;20595;-71
2023/09/12 02:21:08;;;;;;;13.25;4.43;;;;;;;12.65;100.00;97604.06;5147558;27;20027;-72
2023/09/12 02:23:34;;;;;;;7.45;3.88;;;;;;;12.64;100.00;97606.88;5152159;27;20079;-72
2023/09/12 02:25:59;;;;;;;9.82;3.97;;;;;;;12.65;100.00;97608.56;5152426;27;20026;-72
2023/09/12 02:28:25;;;;;;;6.88;3.97;;;;;;;12.66;100.00;97607.63;5151088;27;20022;-72
2023/09/12 02:30:50;;;;;;;10.77;4.13;;;;;;;12.65;100.00;97597.84;5150980;27;20033;-72
2023/09/12 02:33:16;;;;;;;12.77;4.47;;;;;;;12.62;100.00;97603.41;5152252;27;20087;-72
2023/09/12 02:35:41;;;;;;;9.38;4.35;;;;;;;12.57;100.00;97605.56;5150980;27;20026;-71
2023/09/12 02:38:07;;;;;;;12.98;4.35;;;;;;;12.65;100.00;97604.06;5150974;27;20482;-72
2023/09/12 02:40:33;;;;;;;8.70;4.05;;;;;;;12.68;100.00;97609.22;5150901;27;20018;-72
2023/09/12 02:42:58;;;;;;;18.50;4.85;;;;;;;12.61;100.00;97609.78;5150738;27;20027;-71
2023/09/12 02:45:24;;;;;;;7.45;4.45;;;;;;;12.58;100.00;97607.31;5151078;27;20206;-71
2023/09/12 02:47:49;;;;;;;6.53;4.75;;;;;;;12.55;100.00;97607.50;5150940;27;20440;-71
2023/09/12 02:50:15;;;;;;;10.68;4.55;;;;;;;12.48;100.00;97607.94;5152191;27;20023;-71
2023/09/12 02:52:40;;;;;;;8.88;4.45;;;;;;;12.42;100.00;97603.00;5151874;27;20557;-72
2023/09/12 02:55:06;;;;;;;12.40;5.03;;;;;;;12.39;100.00;97611.25;5152083;27;20117;-72
2023/09/12 02:57:32;;;;;;;16.50;5.80;;;;;;;12.31;100.00;97613.56;5150811;27;20046;-72
2023/09/12 02:59:58;;;;;;;15.15;7.10;;;;;;;12.17;100.00;97605.59;5151841;27;20027;-72
2023/09/12 03:02:23;;;;;;;20.60;9.13;;;;;;;12.21;100.00;97608.94;5150758;27;20025;-72
2023/09/12 03:04:49;;;;;;;53.20;14.30;;;;;;;12.16;100.00;97611.06;5150525;27;20027;-72
2023/09/12 03:07:14;;;;;;;65.20;14.68;;;;;;;12.09;100.00;97609.78;5150745;27;20038;-73
2023/09/12 03:09:40;;;;;;;78.72;17.70;;;;;;;12.03;100.00;97610.19;5152822;27;20011;-71
2023/09/12 03:12:05;;;;;;;73.65;15.60;;;;;;;11.93;100.00;97618.81;5154765;27;20068;-71
2023/09/12 03:14:31;;;;;;;45.28;14.40;;;;;;;11.83;100.00;97614.19;5155932;27;20021;-71
2023/09/12 03:16:56;;;;;;;25.30;9.20;;;;;;;11.83;100.00;97604.31;5154471;27;20047;-70
2023/09/12 03:19:22;;;;;;;16.10;6.68;;;;;;;11.89;100.00;97613.78;5154590;27;20406;-71
2023/09/12 03:21:47;;;;;;;16.65;7.25;;;;;;;11.78;100.00;97610.94;5145561;27;20054;-72
2023/09/12 03:24:13;;;;;;;9.82;4.95;;;;;;;11.73;100.00;97610.38;5149477;27;20023;-71
2023/09/12 03:26:38;;;;;;;8.80;5.07;;;;;;;11.79;100.00;97612.66;5154753;27;20071;-71
2023/09/12 03:29:04;;;;;;;9.05;5.03;;;;;;;11.76;100.00;97615.53;5131434;27;20541;-72
2023/09/12 03:31:30;;;;;;;9.20;4.88;;;;;;;11.67;100.00;97608.06;5151399;27;20022;-72
2023/09/12 03:33:55;;;;;;;17.98;5.53;;;;;;;11.65;100.00;97610.00;5154132;27;20026;-71
2023/09/12 03:36:21;;;;;;;9.30;4.78;;;;;;;11.66;100.00;97603.69;5155843;27;20030;-71
2023/09/12 03:38:46;;;;;;;9.13;4.25;;;;;;;11.71;100.00;97612.31;5154278;27;20121;-71
2023/09/12 03:41:12;;;;;;;11.50;4.82;;;;;;;11.75;100.00;97621.88;5136819;27;20034;-72
2023/09/12 03:43:37;;;;;;;8.25;5.00;;;;;;;11.85;100.00;97613.09;5154440;27;20023;-72
2023/09/12 03:46:03;;;;;;;13.50;5.88;;;;;;;11.84;100.00;97629.31;5135134;27;20027;-72
2023/09/12 03:48:31;;;;;;;24.40;9.68;;;;;;;11.92;100.00;97618.94;5153964;27;20022;-70
2023/09/12 03:50:57;;;;;;;16.70;7.50;;;;;;;11.92;100.00;97619.78;5130629;27;20455;-72
2023/09/12 03:53:22;;;;;;;10.00;5.63;;;;;;;11.88;100.00;97628.13;5149447;27;20022;-72
2023/09/12 03:55:48;;;;;;;11.85;5.70;;;;;;;11.88;100.00;97625.44;5153933;27;20046;-72
2023/09/12 03:58:13;;;;;;;47.55;11.52;;;;;;;11.79;100.00;97620.69;5154989;27;20578;-71
2023/09/12 04:00:39;;;;;;;27.08;9.75;;;;;;;11.74;100.00;97617.47;5153739;27;20090;-72
2023/09/12 04:03:04;;;;;;;19.63;6.00;;;;;;;11.73;100.00;97618.41;5144219;27;20023;-71
2023/09/12 04:05:30;;;;;;;14.57;5.80;;;;;;;11.69;100.00;97614.19;5134337;27;20019;-73
2023/09/12 04:07:55;;;;;;;21.98;6.50;;;;;;;11.74;100.00;97614.78;5153096;27;20076;-71
2023/09/12 04:10:21;;;;;;;28.40;9.77;;;;;;;11.82;100.00;97625.84;5153798;27;20071;-71
2023/09/12 04:12:46;;;;;;;17.35;6.85;;;;;;;11.87;100.00;97624.56;5153593;27;20054;-72
2023/09/12 04:15:12;;;;;;;20.30;7.35;;;;;;;11.87;100.00;97610.34;5154169;27;20026;-70
2023/09/12 04:17:37;;;;;;;32.10;8.95;;;;;;;11.96;100.00;97620.47;5154442;27;20033;-71
2023/09/12 04:20:04;;;;;;;13.73;4.82;;;;;;;11.93;100.00;97620.66;5153513;27;20019;-71
2023/09/12 04:22:30;;;;;;;9.73;5.90;;;;;;;11.90;100.00;97619.00;5153121;27;20117;-72
2023/09/12 04:24:55;;;;;;;16.10;6.20;;;;;;;11.79;100.00;97609.97;5154465;27;20523;-71
2023/09/12 04:27:21;;;;;;;21.83;5.95;;;;;;;11.77;100.00;97617.25;5153295;27;20027;-72
2023/09/12 04:29:47;;;;;;;15.98;5.90;;;;;;;11.87;100.00;97605.81;5153248;27;20027;-71
2023/09/12 04:32:12;;;;;;;22.08;7.50;;;;;;;12.03;100.00;97624.44;5135578;27;20030;-71
2023/09/12 04:34:38;;;;;;;10.02;5.32;;;;;;;12.02;100.00;97627.22;5154491;27;20086;-72
2023/09/12 04:37:05;;;;;;;21.92;5.80;;;;;;;12.09;100.00;97629.38;5152858;27;20022;-72
2023/09/12 04:39:31;;;;;;;14.75;5.97;;;;;;;12.04;100.00;97623.47;5153319;27;20505;-72
2023/09/12 04:41:56;;;;;;;15.25;6.13;;;;;;;12.14;100.00;97629.09;5154194;27;20026;-71
2023/09/12 04:44:22;;;;;;;16.42;7.47;;;;;;;12.28;100.00;97632.56;5154122;27;20041;-71
2023/09/12 04:46:48;;;;;;;22.75;6.85;;;;;;;12.40;100.00;97638.91;5138973;27;20474;-73
2023/09/12 04:49:14;;;;;;;24.58;8.25;;;;;;;12.46;100.00;97628.63;5131804;27;20405;-72
2023/09/12 04:51:39;;;;;;;25.17;11.77;;;;;;;12.61;100.00;97640.16;5148608;27;20113;-72
2023/09/12 04:54:05;;;;;;;22.27;9.25;;;;;;;12.63;100.00;97631.97;5135295;27;20386;-72
2023/09/12 04:56:31;;;;;;;39.70;11.35;;;;;;;12.69;100.00;97636.94;5152773;27;20045;-70
2023/09/12 04:59:09;;;;;;;20.75;7.90;;;;;;;12.65;100.00;97640.78;5152178;27;20122;-74
2023/09/12 05:01:35;;;;;;;28.02;10.13;;;;;;;12.56;100.00;97639.59;5152544;27;20165;-71
2023/09/12 05:04:01;;;;;;;36.08;11.57;;;;;;;12.64;100.00;97639.06;5152387;27;20026;-71
2023/09/12 05:06:26;;;;;;;30.13;8.90;;;;;;;12.65;100.00;97638.09;5131066;27;20478;-71
2023/09/12 05:08:52;;;;;;;40.80;9.00;;;;;;;12.64;100.00;97645.31;5114446;27;20031;-72
2023/09/12 05:11:17;;;;;;;32.50;7.65;;;;;;;12.68;100.00;97638.75;5151462;27;20031;-71
2023/09/12 05:13:43;;;;;;;23.65;7.70;;;;;;;12.77;100.00;97634.56;5152557;27;20022;-71
2023/09/12 05:16:08;;;;;;;30.73;7.60;;;;;;;12.88;100.00;97643.59;5152976;27;22424;-72
2023/09/12 05:18:34;;;;;;;24.50;6.90;;;;;;;13.05;100.00;97640.59;5153209;27;20053;-70
2023/09/12 05:20:59;;;;;;;11.68;6.78;;;;;;;13.22;100.00;97639.44;5152156;27;20054;-71
2023/09/12 05:23:25;;;;;;;20.92;7.40;;;;;;;13.31;100.00;97630.72;5139739;27;20474;-71
2023/09/12 05:25:50;;;;;;;21.92;7.43;;;;;;;13.49;100.00;97634.78;5148370;27;20056;-71
2023/09/12 05:28:16;;;;;;;19.42;6.03;;;;;;;13.67;100.00;97629.03;5134589;27;20034;-71
2023/09/12 05:30:42;;;;;;;16.17;6.68;;;;;;;13.85;100.00;97630.34;5151929;27;20030;-70
2023/09/12 05:33:08;;;;;;;23.98;6.85;;;;;;;14.12;100.00;97622.91;5152463;27;20065;-72
2023/09/12 05:35:33;;;;;;;19.50;6.45;;;;;;;15.52;100.00;97616.44;5134881;27;20062;-70
2023/09/12 05:37:59;;;;;;;18.80;6.35;;;;;;;17.04;100.00;97611.72;5153205;27;20034;-71
2023/09/12 05:40:24;;;;;;;24.90;7.10;;;;;;;18.02;100.00;97602.03;5134387;27;20046;-71
2023/09/12 05:42:50;;;;;;;18.35;6.25;;;;;;;19.05;100.00;97590.47;5151878;27;20113;-71
2023/09/12 05:45:15;;;;;;;24.23;6.50;;;;;;;20.08;100.00;97590.34;5133911;27;20117;-71
2023/09/12 05:47:41;;;;;;;18.48;7.07;;;;;;;21.14;100.00;97590.34;5151892;27;20026;-72
2023/09/12 05:50:06;;;;;;;20.00;7.45;;;;;;;21.58;97.09;97581.09;5151485;27;20033;-71
2023/09/12 05:52:33;;;;;;;16.67;5.57;;;;;;;22.33;88.58;97577.50;5151699;27;20105;-71
2023/09/12 05:54:58;;;;;;;20.17;6.53;;;;;;;22.92;84.48;97572.75;5151526;27;20524;-71
2023/09/12 05:57:24;;;;;;;14.88;5.70;;;;;;;23.01;84.21;97572.59;5151447;27;20046;-71
2023/09/12 05:59:50;;;;;;;20.95;6.18;;;;;;;22.02;90.09;97581.84;5151112;27;20026;-72
2023/09/12 06:02:15;;;;;;;18.98;5.85;;;;;;;22.96;83.42;97572.25;5141902;27;20038;-71
2023/09/12 06:04:41;;;;;;;14.75;6.03;;;;;;;24.39;69.49;97567.56;5145451;27;20014;-71
2023/09/12 06:07:06;;;;;;;15.60;6.22;;;;;;;23.96;69.62;97568.13;5151530;27;20023;-70
2023/09/12 06:09:32;;;;;;;16.38;7.22;;;;;;;23.36;80.42;97586.88;5151304;27;20021;-71
2023/09/12 06:11:57;;;;;;;20.85;5.60;;;;;;;23.50;78.31;97575.28;5152476;27;20023;-71
2023/09/12 06:14:23;;;;;;;13.95;5.22;;;;;;;22.92;82.24;97579.06;5150955;27;20018;-71
2023/09/12 06:16:48;;;;;;;16.42;4.95;;;;;;;22.83;84.40;97584.69;5133815;27;20581;-72
2023/09/12 06:19:14;;;;;;;12.60;4.93;;;;;;;22.82;85.41;97583.88;5150264;27;20107;-72
2023/09/12 06:21:43;;;;;;;15.93;4.97;;;;;;;23.20;84.45;97588.63;5151383;27;20450;-72
2023/09/12 06:24:23;;;;;;;37.42;24.38;;;;;;;23.29;80.33;97583.97;5152456;27;20425;-72
2023/09/12 06:26:49;;;;;;;12.73;5.45;;;;;;;23.61;79.10;97585.84;5133950;27;20027;-72
2023/09/12 06:29:15;;;;;;;12.77;5.50;;;;;;;24.07;73.32;97581.38;5149930;27;20048;-72
2023/09/12 06:31:43;;;;;;;18.98;5.63;;;;;;;24.37;68.56;97582.44;5144223;27;20030;-71
2023/09/12 06:34:10;;;;;;;13.52;5.47;;;;;;;25.05;66.40;97590.69;5134053;27;20473;-72
2023/09/12 06:36:36;;;;;;;10.38;4.50;;;;;;;25.80;60.68;97566.81;5150863;27;20027;-71
2023/09/12 06:39:01;;;;;;;16.02;6.30;;;;;;;25.78;64.54;97579.84;5151097;27;20289;-72
2023/09/12 06:41:27;;;;;;;14.40;5.40;;;;;;;26.98;55.74;97571.00;5150666;27;20517;-73
2023/09/12 06:43:53;;;;;;;22.48;6.32;;;;;;;26.78;55.12;97559.81;5132742;27;20462;-72
2023/09/12 06:46:18;;;;;;;9.02;5.00;;;;;;;27.13;53.78;97557.19;5133424;27;20027;-73
2023/09/12 06:48:45;;;;;;;7.20;3.78;;;;;;;26.87;51.33;97563.28;5133550;27;20022;-73
2023/09/12 06:51:11;;;;;;;16.65;5.05;;;;;;;26.48;51.88;97562.84;5150761;27;20034;-73
2023/09/12 06:53:39;;;;;;;22.27;4.88;;;;;;;26.79;51.14;97558.75;5133213;27;20035;-72
2023/09/12 06:56:05;;;;;;;30.60;7.53;;;;;;;27.32;50.57;97559.22;5151974;27;20043;-72
2023/09/12 06:58:31;;;;;;;14.75;4.68;;;;;;;27.68;49.00;97556.38;5133252;27;20034;-72
2023/09/12 07:01:04;;;;;;;11.15;4.25;;;;;;;27.83;48.49;97554.34;5150826;27;20030;-72
2023/09/12 07:03:30;;;;;;;14.32;4.32;;;;;;;28.55;47.11;97554.66;5150602;27;20029;-73
2023/09/12 07:05:56;;;;;;;10.82;4.07;;;;;;;28.63;47.02;97562.72;5151988;27;20038;-73
2023/09/12 07:08:21;;;;;;;15.40;4.55;;;;;;;27.82;47.36;97550.72;5150584;27;20030;-72
2023/09/12 07:10:47;;;;;;;14.48;4.90;;;;;;;27.66;47.86;97555.69;5152174;27;20023;-71
2023/09/12 07:13:12;;;;;;;9.32;3.72;;;;;;;28.34;46.26;97557.53;5133077;27;20022;-71
2023/09/12 07:15:49;;;;;;;;;;;;;;;;;;;;;
2023/09/12 07:18:15;;;;;;;15.15;3.67;;;;;;;30.29;42.26;97544.00;5148480;27;20049;-72
2023/09/12 07:20:41;;;;;;;12.40;3.55;;;;;;;29.09;43.42;97545.44;5151578;27;20494;-71
2023/09/12 07:23:07;;;;;;;10.80;3.33;;;;;;;28.65;43.79;97548.78;5150450;27;20030;-72
2023/09/12 07:25:38;;;;;;;8.52;3.80;;;;;;;28.73;44.19;97545.84;5149951;27;20058;-73
2023/09/12 07:28:04;;;;;;;8.48;3.72;;;;;;;28.72;44.07;97550.50;5133339;27;20019;-71
2023/09/12 07:30:30;;;;;;;11.80;3.83;;;;;;;29.43;43.06;97543.34;5150296;27;20095;-72
2023/09/12 07:32:55;;;;;;;21.05;4.10;;;;;;;29.83;42.65;97543.31;5150489;27;20113;-71
2023/09/12 07:35:23;;;;;;;14.57;3.85;;;;;;;29.79;42.44;97539.25;5150246;27;20098;-71
2023/09/12 07:37:49;;;;;;;20.45;4.80;;;;;;;29.49;42.52;97539.75;5132928;27;20471;-72
2023/09/12 07:40:15;;;;;;;9.15;3.50;;;;;;;29.81;43.01;97537.97;5150206;27;20031;-73
2023/09/12 07:42:40;;;;;;;9.43;4.10;;;;;;;29.41;42.08;97544.63;5151411;27;20030;-72
2023/09/12 07:45:07;;;;;;;8.05;3.90;;;;;;;30.24;41.48;97542.97;5150321;27;20113;-72
2023/09/12 07:47:33;;;;;;;9.13;3.92;;;;;;;30.31;40.77;97535.47;5115758;27;20023;-73
2023/09/12 07:50:00;;;;;;;14.68;4.82;;;;;;;30.89;39.86;97533.47;5142157;27;20023;-73
2023/09/12 07:52:28;;;;;;;7.05;3.85;;;;;;;30.62;38.77;97522.59;5150350;27;20049;-71
2023/09/12 07:54:59;;;;;;;9.50;3.67;;;;;;;31.16;39.01;97521.19;5150898;27;20109;-72
2023/09/12 07:57:25;;;;;;;20.20;3.90;;;;;;;31.40;38.44;97520.31;5138287;27;20501;-71
2023/09/12 07:59:50;;;;;;;24.80;3.95;;;;;;;31.79;38.41;97523.78;5143957;27;20026;-72
2023/09/12 08:02:16;;;;;;;6.13;3.60;;;;;;;32.15;37.66;97519.13;5154205;27;20026;-72
2023/09/12 08:04:41;;;;;;;10.88;4.00;;;;;;;32.23;37.54;97520.75;5145423;27;20038;-73
2023/09/12 08:07:07;;;;;;;16.52;5.00;;;;;;;32.60;36.72;97524.31;5146128;27;20018;-72
2023/09/12 08:09:49;;;;;;;14.38;3.92;;;;;;;33.10;36.15;97522.09;5153913;27;20022;-72
2023/09/12 08:12:15;;;;;;;11.00;4.25;;;;;;;32.76;35.97;97509.81;5155250;27;20410;-72
2023/09/12 08:14:40;;;;;;;17.88;4.03;;;;;;;32.73;36.33;97513.06;5154938;27;20022;-71
2023/09/12 08:17:06;;;;;;;10.27;3.22;;;;;;;32.99;36.28;97520.94;5153610;27;20095;-72
2023/09/12 08:19:31;;;;;;;15.65;3.70;;;;;;;33.16;35.38;97510.06;5136190;27;20113;-72
2023/09/12 08:21:57;;;;;;;8.45;4.20;;;;;;;33.30;35.54;97511.50;5153390;27;20065;-72
2023/09/12 08:24:22;;;;;;;13.38;3.50;;;;;;;33.49;35.30;97503.91;5154955;27;20409;-72
2023/09/12 08:26:49;;;;;;;11.52;4.13;;;;;;;33.51;35.09;97508.13;5154496;27;20033;-71
2023/09/12 08:29:15;;;;;;;8.93;3.20;;;;;;;33.88;34.92;97502.34;5154838;27;20021;-72
2023/09/12 08:31:40;;;;;;;14.63;3.38;;;;;;;34.71;33.34;97494.41;5153513;27;20097;-72
2023/09/12 08:34:06;;;;;;;14.73;4.53;;;;;;;34.68;33.64;97494.91;5154226;27;20025;-72
2023/09/12 08:36:31;;;;;;;18.73;3.30;;;;;;;35.17;32.73;97484.97;5153028;27;20078;-72
2023/09/12 08:38:57;;;;;;;4.85;2.53;;;;;;;35.62;31.76;97479.34;5154156;27;20038;-72
2023/09/12 08:41:22;;;;;;;9.80;3.00;;;;;;;35.24;32.01;97482.88;5153060;27;20026;-73
2023/09/12 08:43:48;;;;;;;7.50;3.17;;;;;;;35.13;32.13;97476.28;5152949;27;20022;-72
2023/09/12 08:46:15;;;;;;;12.88;3.38;;;;;;;36.53;30.93;97480.59;5153049;27;20022;-72
2023/09/12 08:48:41;;;;;;;7.85;3.40;;;;;;;37.03;30.49;97474.72;5152859;27;20030;-72
2023/09/12 08:51:07;;;;;;;9.68;3.08;;;;;;;37.84;29.47;97463.06;5153113;27;20022;-73
2023/09/12 08:53:33;;;;;;;9.02;3.10;;;;;;;38.36;28.71;97459.47;5152942;27;20091;-73
2023/09/12 08:56:00;;;;;;;13.52;4.10;;;;;;;37.25;29.99;97461.53;5135286;27;20473;-72
2023/09/12 08:58:25;;;;;;;7.43;3.22;;;;;;;38.57;28.54;97465.97;5135606;27;20030;-72
2023/09/12 09:00:51;;;;;;;7.20;3.60;;;;;;;39.43;27.07;97461.34;5135073;27;20027;-72
2023/09/12 09:03:17;;;;;;;5.28;3.38;;;;;;;39.10;27.14;97453.50;5152584;27;20054;-72
2023/09/12 09:05:44;;;;;;;11.77;3.22;;;;;;;38.84;27.77;97455.41;5152558;27;20109;-72
2023/09/12 09:08:09;;;;;;;21.70;5.15;;;;;;;38.77;27.53;97449.19;5151726;27;20038;-72
2023/09/12 09:10:35;;;;;;;9.20;3.22;;;;;;;39.33;27.06;97451.00;5152498;27;20023;-72
2023/09/12 09:13:00;;;;;;;5.10;2.83;;;;;;;39.79;26.82;97451.78;5152305;27;20034;-72
2023/09/12 09:15:27;;;;;;;24.45;4.55;;;;;;;39.12;27.09;97451.25;5152422;27;20050;-73
2023/09/12 09:17:54;;;;;;;9.07;3.10;;;;;;;39.69;26.01;97446.19;5134792;27;20018;-73
2023/09/12 09:20:29;;;;;;;8.43;3.17;;;;;;;40.00;25.94;97450.59;5152485;27;20426;-73
2023/09/12 09:22:58;;;;;;;11.23;3.55;;;;;;;40.39;25.45;97445.16;5134393;27;20022;-72
2023/09/12 09:25:23;;;;;;;6.95;3.50;;;;;;;40.07;25.15;97441.88;5147322;27;20030;-72
2023/09/12 09:27:49;;;;;;;4.70;2.78;;;;;;;40.77;24.75;97449.16;5153336;27;20030;-71
2023/09/12 09:30:14;;;;;;;8.25;3.13;;;;;;;40.76;23.86;97439.06;5151800;27;20019;-71
2023/09/12 09:32:40;;;;;;;5.32;2.90;;;;;;;40.88;23.60;97435.91;5152055;27;20065;-72
2023/09/12 09:35:06;;;;;;;7.38;3.00;;;;;;;41.13;23.14;97430.94;5153140;27;20026;-72
2023/09/12 09:37:33;;;;;;;7.80;2.90;;;;;;;41.09;23.06;97426.22;5151948;27;20057;-72
2023/09/12 09:39:58;;;;;;;6.65;2.90;;;;;;;41.17;22.94;97425.56;5134322;27;20018;-73
2023/09/12 09:42:24;;;;;;;4.15;3.28;;;;;;;41.56;22.97;97425.53;5151807;27;20500;-72
2023/09/12 09:44:49;;;;;;;7.53;2.90;;;;;;;41.57;22.81;97418.75;5151858;27;20033;-72
2023/09/12 09:47:15;;;;;;;3.83;3.00;;;;;;;41.51;22.30;97405.91;5151589;27;20466;-72
2023/09/12 09:49:40;;;;;;;8.98;2.97;;;;;;;41.35;22.70;97412.84;5151919;27;20022;-73
2023/09/12 09:52:06;;;;;;;13.02;2.70;;;;;;;41.32;23.12;97413.34;5134157;27;20476;-73
2023/09/12 09:54:32;;;;;;;3.03;2.75;;;;;;;41.69;22.54;97418.38;5134537;27;20045;-73
2023/09/12 09:56:57;;;;;;;4.82;2.78;;;;;;;40.52;22.95;97410.88;5152927;27;20106;-73
2023/09/12 09:59:25;;;;;;;4.15;2.60;;;;;;;41.68;21.75;97409.09;5133980;27;20023;-73
2023/09/12 10:01:55;;;;;;;5.22;2.70;;;;;;;41.76;21.82;97414.09;5151413;27;20109;-72
2023/09/12 10:04:21;;;;;;;4.55;2.72;;;;;;;42.38;21.34;97403.78;5151533;27;20162;-73
2023/09/12 10:06:47;;;;;;;7.70;2.72;;;;;;;41.97;21.47;97395.84;5151483;27;20065;-72
2023/09/12 10:09:13;;;;;;;6.55;2.97;;;;;;;42.88;20.85;97397.44;5151794;27;20522;-72
2023/09/12 10:11:40;;;;;;;6.72;2.88;;;;;;;42.15;21.39;97397.88;5151327;27;20023;-73
2023/09/12 10:14:07;;;;;;;4.20;2.50;;;;;;;42.04;22.07;97387.91;5151236;27;20026;-73
2023/09/12 10:16:34;;;;;;;8.38;2.63;;;;;;;42.33;21.31;97389.81;5133429;27;20043;-74
2023/09/12 10:19:19;;;;;;;5.13;2.42;;;;;;;42.14;20.79;97390.59;5143987;27;20493;-74
2023/09/12 10:22:00;;;;;;;4.78;2.50;;;;;;;42.32;21.17;97388.97;5128953;27;20464;-72
2023/09/12 10:24:27;;;;;;;7.45;3.35;;;;;;;42.68;21.37;97387.31;5134683;27;20485;-73
2023/09/12 10:26:53;;;;;;;26.50;3.30;;;;;;;42.47;22.26;97383.13;5148065;27;20492;-72
2023/09/12 10:29:19;;;;;;;4.25;2.60;;;;;;;42.50;21.32;97384.47;5148532;27;20061;-72
2023/09/12 10:31:45;;;;;;;7.85;2.97;;;;;;;42.64;21.09;97377.81;5147876;27;20066;-72
2023/09/12 10:34:12;;;;;;;7.97;2.55;;;;;;;42.24;21.20;97372.75;5130648;27;20030;-73
2023/09/12 10:36:42;;;;;;;4.85;2.30;;;;;;;42.58;21.41;97375.38;5149617;27;20027;-72
2023/09/12 10:39:09;;;;;;;5.55;2.72;;;;;;;43.58;20.44;97374.84;5149187;27;20037;-72
2023/09/12 10:41:39;;;;;;;4.03;2.60;;;;;;;43.15;20.05;97369.41;5130940;27;20035;-73
2023/09/12 10:44:14;;;;;;;7.47;2.83;;;;;;;43.49;19.99;97363.47;5147766;27;20023;-73
2023/09/12 10:46:40;;;;;;;26.15;10.27;;;;;;;41.59;21.33;97351.88;5149527;27;20449;-73
2023/09/12 10:49:13;;;;;;;7.70;3.00;;;;;;;43.18;20.36;97363.16;5148094;27;20106;-72
2023/09/12 10:51:45;;;;;;;6.40;2.83;;;;;;;44.11;20.04;97361.94;5148170;27;20018;-71
2023/09/12 10:54:16;;;;;;;6.05;2.60;;;;;;;44.02;20.22;97361.00;5148064;27;20114;-72
2023/09/12 10:56:42;;;;;;;;;;;;;;;45.37;19.17;97360.13;5148532;27;20037;-73
2023/09/12 10:59:08;;;;;;;13.18;2.90;;;;;;;44.80;19.33;97353.31;5147756;27;19915;-72
2023/09/12 11:01:34;;;;;;;8.05;2.80;;;;;;;45.40;18.86;97348.16;5142651;27;20125;-73
2023/09/12 11:04:18;;;;;;;7.50;3.03;;;;;;;45.64;18.99;97349.44;5128647;27;20035;-72
2023/09/12 11:06:44;;;;;;;3.90;2.58;;;;;;;44.36;19.64;97348.44;5149160;27;20034;-72
2023/09/12 11:09:22;;;;;;;4.20;2.38;;;;;;;44.76;19.23;97342.66;5147665;27;20030;-72
2023/09/12 11:11:54;;;;;;;4.35;2.63;;;;;;;44.58;19.39;97343.69;5148103;27;20030;-73
2023/09/12 11:14:20;;;;;;;4.55;3.08;;;;;;;44.18;19.74;97336.97;5147903;27;20114;-73
2023/09/12 11:17:07;;;;;;;7.28;2.92;;;;;;;44.68;19.52;97339.78;5141216;27;20114;-73
2023/09/12 11:19:49;;;;;;;3.75;2.50;;;;;;;44.24;19.88;97329.22;5133192;27;20027;-73
2023/09/12 11:22:33;;;;;;;5.65;2.72;;;;;;;44.64;19.33;97322.63;5147584;27;20033;-73
2023/09/12 11:25:05;;;;;;;6.15;2.70;;;;;;;40.41;22.27;97322.28;5130188;27;20030;-73